Time;durP1;ratioP1;P1;durP2;ratioP2;P2;SDS_P1;SDS_P2;PMS_P1;PMS_P2;Temp;Humidity;BMP_temperature;BMP_pressure;BME280_temperature;BME280_humidity;BME280_pressure;Samples;Min_cycle;Max_cycle;Signal;HPM_P1;HPM_P2
2024/01/08 00:02:04;;;;;;;14.27;6.63;;;;;;;;;;4966177;28;20058;-84
2024/01/08 00:04:30;;;;;;;13.93;6.53;;;;;;;;;;4964312;28;20113;-85
2024/01/08 00:06:55;;;;;;;11.52;6.10;;;;;;;;;;4998561;28;20057;-85
2024/01/08 00:09:20;;;;;;;12.30;5.97;;;;;;;;;;5037687;28;20060;-85
2024/01/08 00:11:46;;;;;;;13.23;6.15;;;;;;;;;;5008183;28;20538;-85
2024/01/08 00:14:11;;;;;;;15.60;6.20;;;;;;;;;;5023252;28;20047;-86
2024/01/08 00:16:37;;;;;;;13.75;6.35;;;;;;;;;;5037010;28;20427;-85
2024/01/08 00:19:02;;;;;;;14.57;6.57;;;;;;;;;;5031501;28;20091;-85
2024/01/08 00:21:28;;;;;;;13.73;6.60;;;;;;;;;;5033086;28;20033;-85
2024/01/08 00:23:54;;;;;;;13.98;6.20;;;;;;;;;;5030330;28;20033;-85
2024/01/08 00:26:20;;;;;;;12.50;6.32;;;;;;;;;;5038096;28;20385;-84
2024/01/08 00:28:45;;;;;;;12.32;6.03;;;;;;;;;;5013412;28;20053;-85
2024/01/08 00:31:10;;;;;;;12.30;6.13;;;;;;;;;;5020703;28;20044;-85
2024/01/08 00:33:39;;;;;;;14.50;6.72;;;;;;;;;;5007263;28;20037;-84
2024/01/08 00:36:07;;;;;;;14.68;6.32;;;;;;;;;;5022544;28;20072;-85
2024/01/08 00:38:32;;;;;;;16.80;7.30;;;;;;;;;;5026610;28;20041;-85
2024/01/08 00:40:58;;;;;;;12.15;6.43;;;;;;;;;;5022205;28;20049;-85
2024/01/08 00:43:32;;;;;;;13.90;6.40;;;;;;;;;;5017810;28;20025;-86
2024/01/08 00:45:57;;;;;;;11.23;5.82;;;;;;;;;;5022998;28;20415;-85
2024/01/08 00:48:34;;;;;;;13.63;6.38;;;;;;;;;;5020250;28;20036;-85
2024/01/08 00:50:59;;;;;;;11.98;5.95;;;;;;;;;;5027223;28;20068;-86
2024/01/08 00:53:24;;;;;;;12.32;5.85;;;;;;;;;;5020456;28;20112;-85
2024/01/08 00:55:50;;;;;;;12.50;6.28;;;;;;;;;;5030052;28;20034;-86
2024/01/08 00:58:15;;;;;;;15.52;6.78;;;;;;;;;;5038623;28;20048;-86
2024/01/08 01:00:41;;;;;;;13.02;6.97;;;;;;;;;;5036304;28;20376;-86
2024/01/08 01:03:07;;;;;;;14.23;6.25;;;;;;;;;;5024109;28;20045;-86
2024/01/08 01:05:32;;;;;;;13.50;5.75;;;;;;;;;;5037804;28;20021;-86
2024/01/08 01:07:57;;;;;;;14.80;7.60;;;;;;;;;;5044677;28;20057;-85
2024/01/08 01:10:23;;;;;;;14.68;6.43;;;;;;;;;;5023564;28;20029;-86
2024/01/08 01:12:48;;;;;;;14.15;6.50;;;;;;;;;;5021765;28;20424;-85
2024/01/08 01:15:14;;;;;;;15.30;6.72;;;;;;;;;;5036275;28;20037;-85
2024/01/08 01:17:40;;;;;;;13.13;6.53;;;;;;;;;;5019832;28;20467;-86
2024/01/08 01:20:06;;;;;;;15.02;7.30;;;;;;;;;;5039122;28;20041;-85
2024/01/08 01:22:31;;;;;;;13.82;6.00;;;;;;;;;;5021341;28;20076;-85
2024/01/08 01:24:57;;;;;;;14.07;6.80;;;;;;;;;;5027292;28;20041;-86
2024/01/08 01:27:22;;;;;;;13.52;6.18;;;;;;;;;;5008383;28;20446;-85
2024/01/08 01:29:48;;;;;;;11.82;5.97;;;;;;;;;;5036367;28;20033;-86
2024/01/08 01:32:16;;;;;;;12.77;6.15;;;;;;;;;;5025043;28;20038;-85
2024/01/08 01:34:41;;;;;;;14.40;6.55;;;;;;;;;;5037168;28;20048;-86
2024/01/08 01:37:07;;;;;;;10.63;5.90;;;;;;;;;;5034291;28;20029;-86
2024/01/08 01:39:33;;;;;;;13.05;6.38;;;;;;;;;;5036734;28;20128;-86
2024/01/08 01:41:58;;;;;;;12.73;5.82;;;;;;;;;;5035953;28;20045;-85
2024/01/08 01:44:24;;;;;;;15.20;6.90;;;;;;;;;;5037425;28;20420;-85
2024/01/08 01:46:51;;;;;;;14.13;6.45;;;;;;;;;;5024240;28;20049;-85
2024/01/08 01:49:18;;;;;;;14.75;7.07;;;;;;;;;;5008749;28;20040;-85
2024/01/08 01:51:47;;;;;;;11.77;5.85;;;;;;;;;;5027746;28;20114;-86
2024/01/08 01:54:20;;;;;;;12.85;6.20;;;;;;;;;;5021465;28;20037;-86
2024/01/08 01:56:59;;;;;;;11.85;5.72;;;;;;;;;;5024554;28;20094;-87
2024/01/08 01:59:26;;;;;;;12.52;6.05;;;;;;;;;;5020143;28;20041;-85
2024/01/08 02:02:00;;;;;;;14.15;6.68;;;;;;;;;;5038671;28;20041;-85
2024/01/08 02:04:32;;;;;;;12.80;6.05;;;;;;;;;;5010317;28;20032;-86
2024/01/08 02:07:00;;;;;;;14.57;6.55;;;;;;;;;;5003266;28;20032;-86
2024/01/08 02:09:27;;;;;;;13.15;6.40;;;;;;;;;;5029199;28;20041;-85
2024/01/08 02:11:52;;;;;;;13.82;6.95;;;;;;;;;;4999175;28;20760;-85
2024/01/08 02:14:18;;;;;;;12.48;5.72;;;;;;;;;;5022665;28;20037;-85
2024/01/08 02:16:43;;;;;;;13.55;5.97;;;;;;;;;;5017271;28;20045;-85
2024/01/08 02:19:09;;;;;;;11.57;6.30;;;;;;;;;;5019208;28;20396;-85
2024/01/08 02:21:34;;;;;;;10.90;6.38;;;;;;;;;;5039697;28;20039;-85
2024/01/08 02:24:04;;;;;;;12.27;6.03;;;;;;;;;;5020037;28;20048;-85
2024/01/08 02:26:34;;;;;;;14.48;6.55;;;;;;;;;;5020233;28;20036;-85
2024/01/08 02:29:04;;;;;;;15.27;6.88;;;;;;;;;;5020395;28;20041;-87
2024/01/08 02:31:30;;;;;;;12.48;5.85;;;;;;;;;;5032606;28;20038;-87
2024/01/08 02:33:56;;;;;;;12.27;5.88;;;;;;;;;;5035629;28;20043;-86
2024/01/08 02:36:21;;;;;;;14.90;6.47;;;;;;;;;;5019951;28;20555;-86
2024/01/08 02:38:47;;;;;;;12.95;6.00;;;;;;;;;;5016317;28;20132;-85
2024/01/08 02:41:12;;;;;;;14.68;6.50;;;;;;;;;;4994410;28;20061;-87
2024/01/08 02:43:37;;;;;;;14.40;5.95;;;;;;;;;;5023571;28;20134;-85
2024/01/08 02:46:03;;;;;;;13.82;6.55;;;;;;;;;;5022675;28;20099;-85
2024/01/08 02:48:29;;;;;;;12.30;5.68;;;;;;;;;;5042689;28;20047;-84
2024/01/08 02:50:54;;;;;;;14.02;5.95;;;;;;;;;;5034139;28;20436;-86
2024/01/08 02:53:20;;;;;;;12.98;6.30;;;;;;;;;;5038237;28;20033;-85
2024/01/08 02:55:45;;;;;;;13.10;6.00;;;;;;;;;;5034843;28;20044;-85
2024/01/08 02:58:13;;;;;;;12.65;5.85;;;;;;;;;;5020249;28;20029;-85
2024/01/08 03:00:38;;;;;;;13.40;6.15;;;;;;;;;;5019615;28;20488;-85
2024/01/08 03:03:03;;;;;;;17.25;6.05;;;;;;;;;;5014146;28;20033;-86
2024/01/08 03:05:32;;;;;;;13.68;5.95;;;;;;;;;;5025280;28;20079;-86
2024/01/08 03:07:57;;;;;;;12.50;6.05;;;;;;;;;;5022601;28;20067;-87
2024/01/08 03:10:25;;;;;;;10.88;5.07;;;;;;;;;;5026958;28;20040;-86
2024/01/08 03:12:50;;;;;;;10.88;5.60;;;;;;;;;;5026815;28;20456;-86
2024/01/08 03:15:16;;;;;;;12.02;5.90;;;;;;;;;;5021993;28;20108;-85
2024/01/08 03:17:42;;;;;;;12.30;5.57;;;;;;;;;;5019680;28;20076;-87
2024/01/08 03:20:08;;;;;;;12.50;6.13;;;;;;;;;;5020111;28;20448;-87
2024/01/08 03:22:34;;;;;;;12.65;5.38;;;;;;;;;;5022051;28;20086;-87
2024/01/08 03:24:59;;;;;;;14.90;6.10;;;;;;;;;;5034188;28;20127;-85
2024/01/08 03:27:24;;;;;;;15.25;6.40;;;;;;;;;;5020100;28;20033;-86
2024/01/08 03:29:50;;;;;;;11.88;5.80;;;;;;;;;;5036996;28;20040;-86
2024/01/08 03:32:15;;;;;;;14.88;6.85;;;;;;;;;;5035592;28;20026;-86
2024/01/08 03:34:42;;;;;;;13.15;6.05;;;;;;;;;;5024257;28;20068;-86
2024/01/08 03:37:07;;;;;;;10.70;6.03;;;;;;;;;;5006421;28;20041;-85
2024/01/08 03:39:33;;;;;;;13.20;5.65;;;;;;;;;;5038832;28;20037;-85
2024/01/08 03:42:01;;;;;;;14.05;5.80;;;;;;;;;;5020372;28;20042;-84
2024/01/08 03:44:26;;;;;;;11.15;5.40;;;;;;;;;;5009588;28;20328;-85
2024/01/08 03:46:52;;;;;;;13.05;6.07;;;;;;;;;;4997092;28;20123;-85
2024/01/08 03:49:17;;;;;;;13.23;6.55;;;;;;;;;;5010124;28;20033;-83
2024/01/08 03:51:46;;;;;;;15.38;6.10;;;;;;;;;;5020868;28;20174;-85
2024/01/08 03:54:31;;;;;;;12.48;6.55;;;;;;;;;;5028904;28;20030;-86
2024/01/08 03:56:57;;;;;;;10.73;5.80;;;;;;;;;;4994023;28;20516;-85
2024/01/08 03:59:22;;;;;;;12.50;6.00;;;;;;;;;;4990111;28;20038;-85
2024/01/08 04:01:50;;;;;;;13.40;6.15;;;;;;;;;;4971692;28;20068;-84
2024/01/08 04:04:15;;;;;;;10.85;6.05;;;;;;;;;;4996842;28;20091;-86
2024/01/08 04:06:41;;;;;;;13.82;5.60;;;;;;;;;;4964277;28;20034;-85
2024/01/08 04:09:07;;;;;;;11.70;5.63;;;;;;;;;;4975613;28;20099;-86
2024/01/08 04:11:34;;;;;;;13.63;6.18;;;;;;;;;;4982094;28;20037;-84
2024/01/08 04:14:00;;;;;;;12.18;5.60;;;;;;;;;;4982082;28;20041;-85
2024/01/08 04:16:26;;;;;;;13.65;6.13;;;;;;;;;;4969715;28;20567;-85
2024/01/08 04:18:51;;;;;;;14.50;6.45;;;;;;;;;;4961944;28;20073;-86
2024/01/08 04:21:17;;;;;;;14.32;6.75;;;;;;;;;;4969480;28;20078;-85
2024/01/08 04:23:42;;;;;;;13.35;6.25;;;;;;;;;;4985326;28;20078;-85
2024/01/08 04:26:14;;;;;;;13.60;6.22;;;;;;;;;;4969146;28;20030;-85
2024/01/08 04:28:40;;;;;;;11.52;6.10;;;;;;;;;;4956284;28;20572;-85
2024/01/08 04:31:05;;;;;;;13.50;6.57;;;;;;;;;;4995953;28;20125;-86
2024/01/08 04:33:33;;;;;;;12.77;5.80;;;;;;;;;;5012278;28;20029;-85
2024/01/08 04:36:03;;;;;;;13.18;6.43;;;;;;;;;;5034020;28;20053;-85
2024/01/08 04:38:29;;;;;;;12.23;5.25;;;;;;;;;;5024621;28;20044;-86
2024/01/08 04:40:54;;;;;;;13.15;6.43;;;;;;;;;;5018087;28;20033;-85
2024/01/08 04:43:20;;;;;;;13.38;6.07;;;;;;;;;;5010832;28;20034;-86
2024/01/08 04:45:45;;;;;;;11.68;6.07;;;;;;;;;;5019177;28;20116;-86
2024/01/08 04:48:10;;;;;;;12.70;6.25;;;;;;;;;;5009108;28;20041;-85
2024/01/08 04:50:36;;;;;;;12.63;5.40;;;;;;;;;;5031660;28;20035;-86
2024/01/08 04:53:01;;;;;;;11.63;5.60;;;;;;;;;;5033766;28;20029;-85
2024/01/08 04:55:27;;;;;;;12.93;6.65;;;;;;;;;;5025492;28;20041;-85
2024/01/08 04:57:52;;;;;;;14.10;5.82;;;;;;;;;;5034980;28;20449;-85
2024/01/08 05:00:20;;;;;;;14.13;8.05;;;;;;;;;;5015852;28;20025;-83
2024/01/08 05:02:46;;;;;;;12.75;6.22;;;;;;;;;;5026489;28;20033;-85
2024/01/08 05:05:11;;;;;;;13.35;6.38;;;;;;;;;;5030529;28;20040;-86
2024/01/08 05:07:37;;;;;;;11.82;5.45;;;;;;;;;;5010946;28;20106;-85
2024/01/08 05:10:03;;;;;;;11.38;5.55;;;;;;;;;;5021762;28;20065;-85
2024/01/08 05:12:29;;;;;;;13.40;6.82;;;;;;;;;;5026467;28;20029;-82
2024/01/08 05:14:57;;;;;;;12.32;6.00;;;;;;;;;;5025042;28;20036;-83
2024/01/08 05:17:23;;;;;;;14.45;5.82;;;;;;;;;;5015313;28;20388;-82
2024/01/08 05:19:51;;;;;;;12.57;5.85;;;;;;;;;;5025342;28;20080;-85
2024/01/08 05:22:16;;;;;;;13.35;6.53;;;;;;;;;;5011664;28;20095;-84
2024/01/08 05:24:42;;;;;;;12.02;5.75;;;;;;;;;;5018632;28;20497;-84
2024/01/08 05:27:07;;;;;;;13.32;6.18;;;;;;;;;;5038242;28;20037;-84
2024/01/08 05:29:32;;;;;;;11.10;5.45;;;;;;;;;;5028143;28;20235;-84
2024/01/08 05:31:58;;;;;;;14.38;6.00;;;;;;;;;;5044154;28;20123;-85
2024/01/08 05:34:23;;;;;;;13.73;6.13;;;;;;;;;;5024788;28;20131;-87
2024/01/08 05:36:48;;;;;;;11.32;5.95;;;;;;;;;;5024398;28;20400;-84
2024/01/08 05:39:16;;;;;;;13.50;5.93;;;;;;;;;;5012811;28;20396;-84
2024/01/08 05:41:41;;;;;;;12.90;5.90;;;;;;;;;;5022632;28;20454;-86
2024/01/08 05:44:08;;;;;;;12.82;5.70;;;;;;;;;;5039806;28;20067;-84
2024/01/08 05:46:33;;;;;;;12.52;5.80;;;;;;;;;;5022335;28;20060;-84
2024/01/08 05:48:59;;;;;;;13.00;6.15;;;;;;;;;;5032259;28;20064;-84
2024/01/08 05:51:28;;;;;;;12.52;6.00;;;;;;;;;;5027309;28;20037;-84
2024/01/08 05:53:53;;;;;;;11.07;5.55;;;;;;;;;;5038231;28;20056;-82
2024/01/08 05:56:19;;;;;;;12.77;6.32;;;;;;;;;;5034422;28;20461;-82
2024/01/08 05:58:44;;;;;;;12.20;5.63;;;;;;;;;;5020949;28;20060;-82
2024/01/08 06:01:10;;;;;;;14.40;6.57;;;;;;;;;;5024204;28;20132;-80
2024/01/08 06:03:35;;;;;;;15.70;7.07;;;;;;;;;;5032911;28;20405;-82
2024/01/08 06:06:02;;;;;;;14.75;5.85;;;;;;;;;;5038684;28;20400;-84
2024/01/08 06:08:37;;;;;;;12.80;6.13;;;;;;;;;;5034938;28;20041;-82
2024/01/08 06:11:03;;;;;;;13.18;6.20;;;;;;;;;;5038809;28;20061;-83
2024/01/08 06:13:29;;;;;;;12.93;5.80;;;;;;;;;;5038477;28;20037;-83
2024/01/08 06:15:54;;;;;;;13.63;6.32;;;;;;;;;;5005083;28;20044;-82
2024/01/08 06:18:20;;;;;;;14.55;6.85;;;;;;;;;;5004919;28;20029;-84
2024/01/08 06:20:46;;;;;;;13.10;6.15;;;;;;;;;;5036295;28;20459;-83
2024/01/08 06:23:11;;;;;;;13.18;6.03;;;;;;;;;;5014616;28;20022;-82
2024/01/08 06:25:37;;;;;;;16.92;7.05;;;;;;;;;;5032270;28;20033;-83
2024/01/08 06:28:03;;;;;;;14.60;7.10;;;;;;;;;;5035832;28;20037;-83
2024/01/08 06:30:28;;;;;;;12.88;6.55;;;;;;;;;;5038711;28;20083;-82
2024/01/08 06:32:54;;;;;;;14.25;6.65;;;;;;;;;;5026753;28;20611;-82
2024/01/08 06:35:19;;;;;;;13.75;6.32;;;;;;;;;;5014715;28;20060;-81
2024/01/08 06:37:44;;;;;;;12.63;6.32;;;;;;;;;;5012399;28;20914;-82
2024/01/08 06:40:10;;;;;;;14.20;7.07;;;;;;;;;;5036358;28;20120;-82
2024/01/08 06:42:38;;;;;;;13.93;6.53;;;;;;;;;;5037055;28;20392;-82
2024/01/08 06:45:04;;;;;;;12.20;6.28;;;;;;;;;;5036601;28;20036;-83
2024/01/08 06:47:29;;;;;;;13.75;6.80;;;;;;;;;;5033299;28;20041;-83
2024/01/08 06:49:55;;;;;;;14.00;6.60;;;;;;;;;;5022199;28;20033;-83
2024/01/08 06:52:20;;;;;;;15.45;6.90;;;;;;;;;;5023000;28;20044;-83
2024/01/08 06:54:47;;;;;;;13.60;6.85;;;;;;;;;;5011445;28;20037;-84
2024/01/08 06:57:13;;;;;;;15.38;7.30;;;;;;;;;;5013384;28;20515;-82
2024/01/08 06:59:38;;;;;;;12.85;6.82;;;;;;;;;;5018186;28;20034;-83
2024/01/08 07:02:04;;;;;;;19.52;7.65;;;;;;;;;;5035972;28;20502;-83
2024/01/08 07:04:29;;;;;;;13.85;7.07;;;;;;;;;;5021786;28;20034;-82
2024/01/08 07:06:55;;;;;;;15.98;7.25;;;;;;;;;;5036418;28;20057;-81
2024/01/08 07:09:20;;;;;;;14.60;7.20;;;;;;;;;;5020854;28;20029;-81
2024/01/08 07:11:45;;;;;;;15.02;7.15;;;;;;;;;;5023366;28;20033;-81
2024/01/08 07:14:11;;;;;;;13.75;6.78;;;;;;;;;;5034851;28;20045;-81
2024/01/08 07:16:36;;;;;;;14.63;6.63;;;;;;;;;;5023294;28;20125;-83
2024/01/08 07:19:03;;;;;;;16.02;7.05;;;;;;;;;;5034923;28;20044;-82
2024/01/08 07:21:29;;;;;;;14.52;7.15;;;;;;;;;;5043903;28;20040;-81
2024/01/08 07:23:54;;;;;;;14.00;7.20;;;;;;;;;;5017434;28;20044;-83
2024/01/08 07:26:20;;;;;;;17.52;7.65;;;;;;;;;;5020281;28;20118;-83
2024/01/08 07:28:48;;;;;;;13.93;7.13;;;;;;;;;;5011423;28;20590;-82
2024/01/08 07:31:15;;;;;;;16.23;7.32;;;;;;;;;;5034464;28;20480;-82
2024/01/08 07:33:41;;;;;;;14.98;6.28;;;;;;;;;;5027826;28;20760;-82
2024/01/08 07:36:07;;;;;;;15.00;7.07;;;;;;;;;;5028050;28;20068;-82
2024/01/08 07:38:45;;;;;;;15.27;7.70;;;;;;;;;;5037293;28;20503;-83
2024/01/08 07:41:14;;;;;;;16.75;8.68;;;;;;;;;;5019375;28;20029;-82
2024/01/08 07:43:47;;;;;;;13.70;7.35;;;;;;;;;;5029411;28;20042;-81
2024/01/08 07:46:15;;;;;;;17.08;7.55;;;;;;;;;;5024206;28;20103;-81
2024/01/08 07:48:40;;;;;;;16.00;7.47;;;;;;;;;;5032464;28;20037;-83
2024/01/08 07:51:06;;;;;;;15.68;7.68;;;;;;;;;;5023477;28;20028;-82
2024/01/08 07:53:31;;;;;;;15.57;7.63;;;;;;;;;;5029726;28;20032;-81
2024/01/08 07:55:56;;;;;;;16.63;7.45;;;;;;;;;;4996106;28;20049;-82
2024/01/08 07:58:22;;;;;;;18.67;7.88;;;;;;;;;;5024710;28;20031;-81
2024/01/08 08:00:47;;;;;;;14.88;7.32;;;;;;;;;;5028574;28;20102;-83
2024/01/08 08:03:13;;;;;;;15.38;7.22;;;;;;;;;;5001729;28;20044;-82
2024/01/08 08:05:41;;;;;;;15.13;7.35;;;;;;;;;;5030360;28;20112;-83
2024/01/08 08:08:07;;;;;;;14.82;7.07;;;;;;;;;;5042653;28;20033;-83
2024/01/08 08:10:34;;;;;;;12.02;5.68;;;;;;;;;;5033593;28;20033;-84
2024/01/08 08:13:03;;;;;;;18.20;8.77;;;;;;;;;;5006601;28;20120;-82
2024/01/08 08:15:28;;;;;;;19.73;8.38;;;;;;;;;;5033138;28;20460;-81
2024/01/08 08:17:54;;;;;;;18.33;7.88;;;;;;;;;;5022973;28;20048;-81
2024/01/08 08:20:19;;;;;;;19.08;8.85;;;;;;;;;;5034922;28;20040;-82
2024/01/08 08:22:45;;;;;;;14.00;7.30;;;;;;;;;;5033294;28;20029;-82
2024/01/08 08:25:10;;;;;;;18.00;7.40;;;;;;;;;;5041945;28;20053;-82
2024/01/08 08:27:35;;;;;;;14.45;8.05;;;;;;;;;;5017384;28;20037;-82
2024/01/08 08:30:01;;;;;;;15.07;7.82;;;;;;;;;;5028368;28;20056;-81
2024/01/08 08:32:26;;;;;;;16.75;7.43;;;;;;;;;;5013722;28;20033;-82
2024/01/08 08:34:52;;;;;;;16.25;7.10;;;;;;;;;;5040328;28;20026;-82
2024/01/08 08:37:17;;;;;;;15.75;7.03;;;;;;;;;;5027882;28;20045;-83
2024/01/08 08:39:42;;;;;;;14.10;6.63;;;;;;;;;;5036763;28;20493;-83
2024/01/08 08:42:11;;;;;;;17.23;7.43;;;;;;;;;;5038981;28;20703;-83
2024/01/08 08:44:37;;;;;;;17.38;8.25;;;;;;;;;;5015935;28;20099;-81
2024/01/08 08:47:03;;;;;;;13.60;7.30;;;;;;;;;;5045434;28;20500;-82
2024/01/08 08:49:28;;;;;;;16.73;7.82;;;;;;;;;;5024214;28;20087;-82
2024/01/08 08:52:02;;;;;;;13.77;7.35;;;;;;;;;;5027431;28;20071;-83
2024/01/08 08:54:27;;;;;;;13.65;7.18;;;;;;;;;;5037456;28;20517;-83
2024/01/08 08:56:52;;;;;;;16.40;7.45;;;;;;;;;;5035323;28;20128;-81
2024/01/08 08:59:21;;;;;;;13.60;6.95;;;;;;;;;;5041465;28;20071;-82
2024/01/08 09:01:52;;;;;;;15.35;6.80;;;;;;;;;;5041229;28;20454;-81
2024/01/08 09:04:18;;;;;;;13.48;6.78;;;;;;;;;;5039296;28;20534;-83
2024/01/08 09:06:48;;;;;;;14.55;7.13;;;;;;;;;;5039594;28;20045;-80
2024/01/08 09:09:14;;;;;;;13.98;7.07;;;;;;;;;;5024486;28;20037;-81
2024/01/08 09:11:39;;;;;;;14.98;7.32;;;;;;;;;;5031061;28;20044;-82
2024/01/08 09:14:08;;;;;;;16.95;7.03;;;;;;;;;;5021547;28;20038;-82
2024/01/08 09:16:34;;;;;;;15.68;7.35;;;;;;;;;;5040112;28;20068;-82
2024/01/08 09:19:00;;;;;;;14.10;6.83;;;;;;;;;;4998389;28;20115;-82
2024/01/08 09:21:25;;;;;;;14.13;6.95;;;;;;;;;;5029874;28;20034;-81
2024/01/08 09:23:50;;;;;;;11.95;6.40;;;;;;;;;;5036218;28;20491;-81
2024/01/08 09:26:16;;;;;;;13.07;6.72;;;;;;;;;;5034905;28;20455;-83
2024/01/08 09:28:45;;;;;;;15.40;7.88;;;;;;;;;;5001586;28;20045;-82
2024/01/08 09:31:10;;;;;;;15.15;7.50;;;;;;;;;;5031651;28;20420;-82
2024/01/08 09:33:42;;;;;;;15.05;7.40;;;;;;;;;;5035863;28;20038;-82
2024/01/08 09:36:07;;;;;;;18.13;7.57;;;;;;;;;;5034834;28;20037;-83
2024/01/08 09:38:33;;;;;;;18.65;9.30;;;;;;;;;;5024066;28;20484;-82
2024/01/08 09:40:58;;;;;;;14.98;6.82;;;;;;;;;;5038345;28;20053;-84
2024/01/08 09:43:23;;;;;;;13.27;6.68;;;;;;;;;;5024263;28;20045;-82
2024/01/08 09:46:05;;;;;;;15.57;6.75;;;;;;;;;;5040752;28;20092;-82
2024/01/08 09:48:35;;;;;;;13.85;6.40;;;;;;;;;;5024708;28;20126;-83
2024/01/08 09:51:01;;;;;;;15.55;7.05;;;;;;;;;;5037953;28;20037;-83
2024/01/08 09:53:28;;;;;;;15.75;7.40;;;;;;;;;;5038121;28;20029;-83
2024/01/08 09:55:53;;;;;;;11.85;6.75;;;;;;;;;;5017336;28;20040;-85
2024/01/08 09:58:21;;;;;;;14.80;7.05;;;;;;;;;;5037395;28;20034;-82
2024/01/08 10:00:46;;;;;;;13.13;5.95;;;;;;;;;;5010494;28;20134;-83
2024/01/08 10:03:13;;;;;;;17.80;6.55;;;;;;;;;;5019588;28;20061;-84
2024/01/08 10:05:39;;;;;;;13.75;7.00;;;;;;;;;;5036352;28;20037;-84
2024/01/08 10:08:05;;;;;;;12.13;6.45;;;;;;;;;;5028985;28;20360;-84
2024/01/08 10:10:32;;;;;;;13.10;6.17;;;;;;;;;;5020729;28;20468;-85
2024/01/08 10:12:58;;;;;;;10.00;5.85;;;;;;;;;;5036223;28;20037;-84
2024/01/08 10:15:24;;;;;;;13.35;6.07;;;;;;;;;;5015585;28;20040;-85
2024/01/08 10:17:54;;;;;;;16.40;7.00;;;;;;;;;;5042176;28;20040;-84
2024/01/08 10:20:19;;;;;;;12.32;6.07;;;;;;;;;;5038325;28;20489;-84
2024/01/08 10:22:45;;;;;;;16.95;6.75;;;;;;;;;;5020078;28;20033;-85
2024/01/08 10:25:11;;;;;;;16.08;6.57;;;;;;;;;;5017533;28;20495;-85
2024/01/08 10:27:36;;;;;;;12.90;6.10;;;;;;;;;;5033089;28;20038;-85
2024/01/08 10:30:03;;;;;;;12.80;6.60;;;;;;;;;;5025992;28;20106;-86
2024/01/08 10:32:29;;;;;;;12.13;5.93;;;;;;;;;;5012817;28;20034;-84
2024/01/08 10:34:56;;;;;;;12.48;6.07;;;;;;;;;;5023068;28;20500;-85
2024/01/08 10:37:22;;;;;;;10.65;5.43;;;;;;;;;;5041855;28;20079;-83
2024/01/08 10:39:48;;;;;;;9.77;5.53;;;;;;;;;;5043128;28;20424;-84
2024/01/08 10:42:14;;;;;;;13.18;5.85;;;;;;;;;;5019811;28;20036;-85
2024/01/08 10:44:39;;;;;;;10.50;5.05;;;;;;;;;;5035725;28;22194;-84
2024/01/08 10:47:08;;;;;;;10.45;5.18;;;;;;;;;;5037209;28;20048;-84
2024/01/08 10:49:36;;;;;;;11.95;5.38;;;;;;;;;;5034606;28;20060;-85
2024/01/08 10:52:14;;;;;;;12.35;5.40;;;;;;;;;;5033622;28;20037;-84
2024/01/08 10:54:45;;;;;;;9.57;5.07;;;;;;;;;;5038185;28;20040;-84
2024/01/08 10:57:15;;;;;;;10.70;4.93;;;;;;;;;;5033742;28;20381;-84
2024/01/08 10:59:41;;;;;;;11.10;4.82;;;;;;;;;;5035125;28;20091;-84
2024/01/08 11:02:27;;;;;;;12.10;5.00;;;;;;;;;;5035862;28;20038;-84
2024/01/08 11:05:00;;;;;;;10.03;4.53;;;;;;;;;;4968281;28;20134;-84
2024/01/08 11:07:26;;;;;;;11.25;4.88;;;;;;;;;;4942805;28;20052;-84
2024/01/08 11:10:01;;;;;;;11.60;5.57;;;;;;;;;;4943848;28;20530;-85
2024/01/08 11:12:27;;;;;;;9.52;4.85;;;;;;;;;;4949411;28;20121;-85
2024/01/08 11:15:01;;;;;;;12.87;5.43;;;;;;;;;;4949597;28;20121;-86
2024/01/08 11:17:27;;;;;;;9.38;4.72;;;;;;;;;;4925921;28;20274;-85
2024/01/08 11:19:54;;;;;;;9.60;4.60;;;;;;;;;;4966999;28;20518;-85
2024/01/08 11:22:20;;;;;;;9.70;4.65;;;;;;;;;;4950053;28;20134;-85
2024/01/08 11:24:47;;;;;;;10.32;4.03;;;;;;;;;;4929082;28;20137;-86
2024/01/08 11:27:15;;;;;;;10.63;4.63;;;;;;;;;;4937771;28;20169;-85
2024/01/08 11:29:41;;;;;;;9.82;4.40;;;;;;;;;;4964949;28;20051;-85
2024/01/08 11:32:32;;;;;;;10.23;4.40;;;;;;;;;;4940472;28;20074;-85
2024/01/08 11:34:59;;;;;;;7.80;4.07;;;;;;;;;;4966571;28;20034;-85
2024/01/08 11:37:29;;;;;;;9.45;4.50;;;;;;;;;;4949419;28;20277;-85
2024/01/08 11:39:54;;;;;;;11.15;4.65;;;;;;;;;;4941761;28;20042;-85
2024/01/08 11:42:21;;;;;;;8.30;4.15;;;;;;;;;;5016238;28;20040;-83
2024/01/08 11:44:49;;;;;;;8.23;3.97;;;;;;;;;;5026406;28;20136;-86
2024/01/08 11:47:15;;;;;;;8.00;4.40;;;;;;;;;;5011063;28;20662;-84
2024/01/08 11:49:41;;;;;;;10.65;5.10;;;;;;;;;;5020478;28;20033;-86
2024/01/08 11:52:08;;;;;;;9.20;4.70;;;;;;;;;;5034462;28;20117;-85
2024/01/08 11:54:33;;;;;;;8.65;4.22;;;;;;;;;;5037809;28;20052;-85
2024/01/08 11:57:02;;;;;;;8.48;4.18;;;;;;;;;;5035509;28;20037;-84
2024/01/08 11:59:35;;;;;;;7.05;3.83;;;;;;;;;;5024039;28;20114;-85
2024/01/08 12:02:14;;;;;;;7.18;3.80;;;;;;;;;;5026871;28;20384;-84
2024/01/08 12:04:40;;;;;;;7.80;3.95;;;;;;;;;;5032664;28;22253;-84
2024/01/08 12:07:09;;;;;;;8.45;4.43;;;;;;;;;;5039024;28;20045;-84
2024/01/08 12:09:35;;;;;;;8.40;4.25;;;;;;;;;;5030744;28;20029;-85
2024/01/08 12:12:09;;;;;;;8.85;4.05;;;;;;;;;;5021562;28;20064;-84
2024/01/08 12:14:36;;;;;;;8.98;4.60;;;;;;;;;;5040574;28;20037;-86
2024/01/08 12:17:02;;;;;;;9.70;4.20;;;;;;;;;;5021212;28;20037;-84
2024/01/08 12:19:49;;;;;;;8.77;4.10;;;;;;;;;;5033605;28;20962;-85
2024/01/08 12:22:17;;;;;;;9.40;3.78;;;;;;;;;;5025827;28;20037;-84
2024/01/08 12:24:47;;;;;;;7.93;4.18;;;;;;;;;;5039586;28;20036;-85
2024/01/08 12:27:20;;;;;;;7.85;3.95;;;;;;;;;;5038487;28;20033;-85
2024/01/08 12:29:47;;;;;;;9.38;3.70;;;;;;;;;;5031586;28;20041;-85
2024/01/08 12:32:22;;;;;;;7.63;3.90;;;;;;;;;;5040489;28;20412;-85
2024/01/08 12:34:48;;;;;;;7.18;3.75;;;;;;;;;;5027226;28;20466;-85
2024/01/08 12:37:15;;;;;;;7.18;3.83;;;;;;;;;;5022047;28;20037;-85
2024/01/08 12:39:40;;;;;;;7.82;4.05;;;;;;;;;;5025212;28;20068;-85
2024/01/08 12:42:09;;;;;;;7.93;3.85;;;;;;;;;;5034281;28;20485;-85
2024/01/08 12:44:36;;;;;;;7.38;4.00;;;;;;;;;;5037934;28;20060;-86
2024/01/08 12:47:05;;;;;;;8.45;4.13;;;;;;;;;;5025471;28;20029;-86
2024/01/08 12:49:31;;;;;;;7.32;3.63;;;;;;;;;;5012175;28;20033;-86
2024/01/08 12:51:58;;;;;;;8.82;4.05;;;;;;;;;;5022280;28;20044;-86
2024/01/08 12:54:23;;;;;;;8.82;3.63;;;;;;;;;;4999195;28;20507;-83
2024/01/08 12:56:49;;;;;;;9.82;4.10;;;;;;;;;;5026005;28;20033;-86
2024/01/08 12:59:16;;;;;;;8.57;3.90;;;;;;;;;;5015874;28;20040;-84
2024/01/08 13:01:42;;;;;;;7.22;3.75;;;;;;;;;;5045396;28;20037;-84
2024/01/08 13:04:09;;;;;;;7.53;4.13;;;;;;;;;;5020936;28;20044;-85
2024/01/08 13:06:34;;;;;;;8.40;4.28;;;;;;;;;;5024776;28;20493;-87
2024/01/08 13:09:00;;;;;;;7.55;3.95;;;;;;;;;;5046610;28;20033;-85
2024/01/08 13:11:25;;;;;;;7.90;3.83;;;;;;;;;;5013216;28;20905;-85
2024/01/08 13:13:51;;;;;;;8.07;3.70;;;;;;;;;;5023604;28;20072;-84
2024/01/08 13:16:17;;;;;;;9.25;4.18;;;;;;;;;;5022537;28;20059;-85
2024/01/08 13:18:43;;;;;;;11.40;4.13;;;;;;;;;;5027232;28;20033;-85
2024/01/08 13:21:08;;;;;;;7.50;3.50;;;;;;;;;;5031224;28;20037;-85
2024/01/08 13:23:41;;;;;;;7.80;3.78;;;;;;;;;;5035749;28;20032;-86
2024/01/08 13:26:06;;;;;;;9.07;4.10;;;;;;;;;;5036699;28;20033;-85
2024/01/08 13:28:32;;;;;;;7.13;3.70;;;;;;;;;;5026292;28;20520;-82
2024/01/08 13:31:00;;;;;;;8.70;3.95;;;;;;;;;;5036219;28;20040;-84
2024/01/08 13:33:25;;;;;;;7.78;3.58;;;;;;;;;;5038600;28;20086;-85
2024/01/08 13:35:50;;;;;;;8.07;3.78;;;;;;;;;;5032703;28;20037;-85
2024/01/08 13:38:16;;;;;;;8.30;3.80;;;;;;;;;;5031526;28;20037;-86
2024/01/08 13:40:41;;;;;;;7.78;3.47;;;;;;;;;;5039625;28;20053;-85
2024/01/08 13:43:09;;;;;;;7.55;3.45;;;;;;;;;;5007550;28;20425;-86
2024/01/08 13:45:34;;;;;;;9.20;3.47;;;;;;;;;;5028105;28;20554;-84
2024/01/08 13:48:00;;;;;;;8.82;3.63;;;;;;;;;;5023029;28;20061;-86
2024/01/08 13:50:28;;;;;;;8.85;3.60;;;;;;;;;;5034947;28;20037;-83
2024/01/08 13:52:54;;;;;;;8.88;4.45;;;;;;;;;;5024941;28;20048;-84
2024/01/08 13:55:20;;;;;;;8.27;3.30;;;;;;;;;;5039447;28;20081;-85
2024/01/08 13:57:45;;;;;;;8.75;3.38;;;;;;;;;;5027506;28;20068;-85
2024/01/08 14:00:11;;;;;;;6.93;3.05;;;;;;;;;;5034605;28;20072;-85
2024/01/08 14:02:37;;;;;;;10.15;3.83;;;;;;;;;;5016736;28;20029;-84
2024/01/08 14:05:06;;;;;;;7.22;3.67;;;;;;;;;;5023718;28;20029;-85
2024/01/08 14:07:32;;;;;;;7.90;3.88;;;;;;;;;;5038278;28;20430;-84
2024/01/08 14:09:57;;;;;;;7.93;4.10;;;;;;;;;;5024575;28;20065;-84
2024/01/08 14:12:23;;;;;;;13.18;4.53;;;;;;;;;;5013385;28;20511;-84
2024/01/08 14:14:48;;;;;;;8.73;4.00;;;;;;;;;;5040848;28;20041;-84
2024/01/08 14:17:13;;;;;;;9.50;4.30;;;;;;;;;;5034342;28;20048;-84
2024/01/08 14:19:39;;;;;;;9.55;3.95;;;;;;;;;;5037205;28;20057;-84
2024/01/08 14:22:04;;;;;;;10.73;4.00;;;;;;;;;;5005053;28;20095;-83
2024/01/08 14:24:30;;;;;;;9.02;4.35;;;;;;;;;;5021304;28;20037;-85
2024/01/08 14:26:56;;;;;;;9.75;4.15;;;;;;;;;;5017620;28;20029;-85
2024/01/08 14:29:21;;;;;;;9.80;4.10;;;;;;;;;;5021343;28;20110;-85
2024/01/08 14:31:47;;;;;;;11.30;4.45;;;;;;;;;;5026645;28;20492;-85